Aeroporto :
LOGIN :

Iscrizione | Disclaimer

   EN    FR    IT 

 










Sommario :    VFR   VFR Marginale   IFR   IFR Intensivo   IFR Molto Intensivo
Visibilità : 
Base nubi : 
>= 8 km
>= 3000ft
5 / 8 km
1000 / 3000 ft
1500m / 5 km
500 / 1000 ft
800 / 1500m
200 / 500 ft
< 800m
< 200 ft
Simboli :   Temporali  Nebbia  Neve Forte  Precipitazioni Forti  Vento > 20 kt
SIGMETs :   Varie  Temporali  Ghiacco  Turbolenza  Onda orograficha  Ceneri Vulcaniche






- Altitudine del aeroporto : 538 ft
- Codice IATA : TNF


LFPN - Toussus Le Noble

ULTIMO METAR :
  • 241830Z AUTO 27004KT 220V320 9999 ///TCU 15/07 Q1012 TEMPO 4000 SHRA SCT035CB

METARs OBSOLETI :
  • 241800Z AUTO 28009KT 250V310 9999 ///TCU 15/07 Q1012 TEMPO 4000 SHRA SCT035CB
  • 241730Z AUTO 31010KT 9999 ///CB 15/08 Q1011 TEMPO 4000 SHRA BECMG 24010KT
  • 241700Z AUTO 31009KT 9999 VCTS ///CB 17/09 Q1011 TEMPO 4000 SHRA BECMG 24010KT NSC
  • 241630Z AUTO 33009KT CAVOK 16/08 Q1011 TEMPO 4000 SHRA SCT035CB BECMG 24010KT
  • 241600Z AUTO 34008KT CAVOK 16/08 Q1011 TEMPO 4000 SHRA SCT035CB BECMG 24010KT

TAF TAF LFPN
Valido dal 24 a 18 ore il 25 a 03 ore UTC


241700Z 2418/2503 24010KT CAVOK
PROB40
TEMPO 2418/2420 4000 SHRA SCT035CB
PROB30
TEMPO 2501/2503 4000 BR
ATIS : +33 1 39 56 54 70



MetMap, La meteo Aeronautica in un colpo d'occhio ! - Copyright ORBIFLY Dicembre 2007 - Disclaimer

ORBIFLY MET'MAP TEAM :

Programmazione e sviluppo : Alexandra Zaïnal
Concezione : Baudouin d'Aumeries
Supporto tecnico e logistico : Manuel Goepfert
Aiuto : Marc-Olivier Méhu
Aiuto per la traduzione : Arnaldo La Scala

Contatto : metmap@orbifly.com




FONTI E CREDITI :

   NOAA